createdAt,value
2019-03-19T00:00:28.279Z,3.83
2019-03-19T00:02:56.942Z,3.55
2019-03-19T00:05:25.596Z,3.95
2019-03-19T00:07:54.283Z,5.28
2019-03-19T00:10:22.927Z,4.03
2019-03-19T00:12:51.583Z,4.17
2019-03-19T00:15:20.311Z,4.45
2019-03-19T00:17:49.088Z,5.08
2019-03-19T00:20:17.754Z,5.05
2019-03-19T00:22:46.463Z,3.92
2019-03-19T00:25:15.195Z,3.95
2019-03-19T00:27:43.859Z,3.10
2019-03-19T00:30:14.182Z,4.05
2019-03-19T00:32:42.847Z,3.85
2019-03-19T00:35:11.813Z,3.02
2019-03-19T00:37:40.508Z,3.80
2019-03-19T00:40:11.430Z,3.35
2019-03-19T00:45:10.314Z,3.17
2019-03-19T00:50:09.999Z,2.95
2019-03-19T00:52:38.622Z,3.08
2019-03-19T00:55:07.863Z,2.67
2019-03-19T00:57:36.441Z,3.00
2019-03-19T01:00:11.094Z,3.55
2019-03-19T01:02:39.642Z,2.90
2019-03-19T01:05:09.275Z,2.70
2019-03-19T01:07:38.081Z,2.58
2019-03-19T01:10:09.780Z,2.77
2019-03-19T01:12:38.511Z,2.55
2019-03-19T01:15:09.903Z,2.45
2019-03-19T01:17:38.595Z,2.45
2019-03-19T01:20:09.931Z,2.95
2019-03-19T01:22:38.659Z,2.65
2019-03-19T01:25:09.612Z,2.60
2019-03-19T01:30:29.944Z,2.50
2019-03-19T01:32:58.754Z,2.33
2019-03-19T01:35:27.475Z,2.10
2019-03-19T01:37:56.126Z,2.60
2019-03-19T01:40:24.807Z,2.45
2019-03-19T01:42:53.460Z,2.00
2019-03-19T01:45:22.122Z,2.33
2019-03-19T01:47:50.782Z,2.40
2019-03-19T01:50:19.447Z,1.90
2019-03-19T01:52:48.145Z,1.60
2019-03-19T01:55:16.878Z,2.00
2019-03-19T01:57:45.611Z,1.98
2019-03-19T02:00:15.740Z,1.57
2019-03-19T02:02:44.475Z,2.02
2019-03-19T02:05:13.321Z,2.20
2019-03-19T02:07:42.056Z,1.72
2019-03-19T02:10:14.617Z,2.02
2019-03-19T02:12:45.992Z,1.50
2019-03-19T02:15:16.893Z,1.92
2019-03-19T02:20:17.517Z,1.70
2019-03-19T02:22:46.356Z,2.10
2019-03-19T02:25:15.202Z,2.33
2019-03-19T02:27:44.055Z,2.35
2019-03-19T02:30:14.932Z,2.12
2019-03-19T02:32:43.640Z,1.85
2019-03-19T02:35:12.357Z,2.30
2019-03-19T02:37:41.075Z,2.55
2019-03-19T02:40:17.241Z,1.80
2019-03-19T02:42:45.983Z,2.30
2019-03-19T02:45:15.594Z,2.20
2019-03-19T02:47:44.384Z,1.82
2019-03-19T02:50:32.417Z,9.18
2019-03-19T02:53:01.084Z,2.37
2019-03-19T02:55:29.740Z,2.47
2019-03-19T02:57:58.571Z,2.80
2019-03-19T03:00:27.300Z,2.95
2019-03-19T03:02:55.981Z,2.95
2019-03-19T03:05:24.812Z,2.90
2019-03-19T03:07:53.465Z,2.67
2019-03-19T03:10:22.228Z,2.17
2019-03-19T03:12:50.887Z,3.52
2019-03-19T03:15:19.605Z,3.85
2019-03-19T03:17:48.260Z,4.40
2019-03-19T03:20:17.615Z,3.50
2019-03-19T03:22:46.328Z,3.08
2019-03-19T03:25:18.452Z,2.20
2019-03-19T03:27:47.046Z,2.30
2019-03-19T03:30:22.820Z,3.05
2019-03-19T03:32:51.716Z,3.08
2019-03-19T03:35:20.505Z,3.75
2019-03-19T03:37:49.134Z,3.30
2019-03-19T03:40:19.142Z,3.42
2019-03-19T03:42:47.802Z,3.33
2019-03-19T03:45:17.502Z,3.83
2019-03-19T03:47:46.196Z,3.80
2019-03-19T03:50:18.010Z,4.35
2019-03-19T03:52:46.738Z,3.20
2019-03-19T03:55:16.471Z,3.83
2019-03-19T03:57:45.266Z,4.00
2019-03-19T04:00:21.688Z,5.33
2019-03-19T04:02:50.488Z,5.92
2019-03-19T04:05:19.224Z,4.17
2019-03-19T04:07:47.951Z,6.03
2019-03-19T04:10:19.707Z,6.97
2019-03-19T04:12:48.583Z,5.35
2019-03-19T04:15:20.051Z,5.78
2019-03-19T04:17:48.833Z,4.92
2019-03-19T04:20:18.460Z,8.60
2019-03-19T04:22:47.189Z,6.95
2019-03-19T04:25:15.964Z,11.85
2019-03-19T04:27:44.709Z,14.73
2019-03-19T04:30:16.376Z,12.55
2019-03-19T04:32:45.143Z,8.50
2019-03-19T04:35:13.876Z,8.05
2019-03-19T04:37:42.628Z,6.65
2019-03-19T04:40:15.305Z,5.50
2019-03-19T04:42:44.495Z,5.87
2019-03-19T04:45:16.953Z,6.12
2019-03-19T04:47:45.738Z,9.83
2019-03-19T04:50:15.480Z,14.07
2019-03-19T04:52:44.517Z,5.78
2019-03-19T04:55:16.664Z,5.10
2019-03-19T04:57:45.465Z,6.00
2019-03-19T05:00:18.244Z,6.67
2019-03-19T05:02:46.908Z,6.92
2019-03-19T05:05:15.633Z,5.95
2019-03-19T05:07:44.395Z,5.72
2019-03-19T05:10:17.719Z,6.50
2019-03-19T05:12:46.681Z,5.80
2019-03-19T05:15:15.529Z,6.20
2019-03-19T05:17:44.259Z,8.78
2019-03-19T05:20:14.988Z,11.48
2019-03-19T05:22:43.726Z,9.18
2019-03-19T05:25:12.771Z,8.28
2019-03-19T05:27:41.508Z,9.30
2019-03-19T05:30:15.060Z,10.45
2019-03-19T05:32:43.686Z,8.83
2019-03-19T05:35:12.419Z,7.85
2019-03-19T05:37:44.031Z,7.95
2019-03-19T05:40:13.968Z,6.10
2019-03-19T05:42:42.806Z,6.08
2019-03-19T05:45:15.246Z,5.87
2019-03-19T05:47:43.943Z,4.95
2019-03-19T05:50:15.606Z,5.03
2019-03-19T05:52:44.358Z,4.50
2019-03-19T05:55:13.261Z,5.92
2019-03-19T05:57:49.376Z,5.83
2019-03-19T06:00:14.046Z,5.03
2019-03-19T06:02:42.679Z,5.55
2019-03-19T06:05:14.384Z,4.30
2019-03-19T06:07:43.110Z,4.95
2019-03-19T06:10:12.781Z,4.80
2019-03-19T06:12:41.579Z,3.65
2019-03-19T06:15:14.268Z,3.58
2019-03-19T06:17:42.960Z,2.75
2019-03-19T06:20:13.696Z,3.77
2019-03-19T06:22:42.359Z,3.98
2019-03-19T06:25:11.996Z,3.52
2019-03-19T06:27:40.634Z,3.60
2019-03-19T06:30:17.757Z,5.22
2019-03-19T06:32:46.610Z,3.08
2019-03-19T06:35:16.134Z,2.85
2019-03-19T06:37:44.863Z,2.65
2019-03-19T06:40:17.730Z,3.05
2019-03-19T06:42:46.519Z,2.60
2019-03-19T06:45:16.449Z,4.05
2019-03-19T06:47:45.450Z,5.75
2019-03-19T06:50:15.375Z,3.30
2019-03-19T06:52:44.379Z,3.52
2019-03-19T06:55:18.100Z,3.55
2019-03-19T06:57:46.833Z,6.65
2019-03-19T07:00:23.279Z,15.88
2019-03-19T07:02:52.086Z,4.92
2019-03-19T07:05:21.120Z,4.92
2019-03-19T07:07:49.918Z,3.98
2019-03-19T07:10:19.362Z,3.52
2019-03-19T07:12:48.163Z,5.60
2019-03-19T07:15:21.018Z,4.53
2019-03-19T07:17:49.661Z,4.80
2019-03-19T07:20:19.491Z,6.20
2019-03-19T07:22:48.225Z,4.90
2019-03-19T07:25:16.955Z,4.47
2019-03-19T07:27:45.678Z,8.08
2019-03-19T07:30:19.338Z,4.30
2019-03-19T07:33:07.335Z,3.80
2019-03-19T07:35:36.007Z,3.67
2019-03-19T07:38:04.771Z,2.77
2019-03-19T07:40:52.756Z,5.08
2019-03-19T07:43:21.492Z,5.28
2019-03-19T07:45:50.141Z,7.25
2019-03-19T07:48:18.883Z,3.22
2019-03-19T07:50:47.539Z,4.90
2019-03-19T07:53:16.192Z,3.22
2019-03-19T07:55:44.867Z,3.90
2019-03-19T07:58:13.528Z,2.80
2019-03-19T08:00:42.260Z,3.50
2019-03-19T08:03:15.904Z,3.05
2019-03-19T08:05:41.305Z,3.83
2019-03-19T08:08:09.971Z,2.90
2019-03-19T08:10:38.654Z,3.10
2019-03-19T08:13:07.238Z,2.70
2019-03-19T08:15:35.923Z,5.53
2019-03-19T08:18:04.651Z,4.62
2019-03-19T08:20:33.490Z,3.17
2019-03-19T08:23:02.216Z,3.90
2019-03-19T08:25:30.881Z,3.83
2019-03-19T08:27:59.471Z,5.00
2019-03-19T08:30:28.262Z,3.72
2019-03-19T08:32:56.928Z,2.90
2019-03-19T08:35:25.592Z,4.12
2019-03-19T08:37:54.318Z,5.20
2019-03-19T08:40:23.222Z,2.70
2019-03-19T08:42:51.945Z,3.67
2019-03-19T08:45:26.418Z,2.20
2019-03-19T08:47:55.146Z,4.33
2019-03-19T08:50:24.449Z,9.95
2019-03-19T08:52:55.248Z,8.05
2019-03-19T08:55:23.463Z,6.42
2019-03-19T08:57:52.079Z,5.83
2019-03-19T09:00:25.170Z,4.45
2019-03-19T09:02:54.781Z,4.25
2019-03-19T09:05:24.679Z,5.60
2019-03-19T09:07:53.341Z,6.17
2019-03-19T09:10:22.132Z,5.90
2019-03-19T09:12:50.695Z,8.73
2019-03-19T09:15:21.331Z,11.97
2019-03-19T09:17:50.008Z,12.78
2019-03-19T09:20:19.134Z,15.10
2019-03-19T09:22:47.891Z,7.37
2019-03-19T09:25:16.718Z,7.15
2019-03-19T09:27:45.436Z,9.30
2019-03-19T09:30:16.068Z,6.67
2019-03-19T09:32:44.884Z,3.80
2019-03-19T09:35:13.824Z,4.67
2019-03-19T09:37:44.763Z,7.17
2019-03-19T09:40:14.669Z,6.35
2019-03-19T09:42:43.398Z,3.60
2019-03-19T09:45:14.140Z,3.87
2019-03-19T09:47:42.806Z,3.17
2019-03-19T09:50:20.510Z,3.25
2019-03-19T09:52:49.235Z,6.20
2019-03-19T09:55:17.973Z,2.12
2019-03-19T09:57:46.708Z,3.08
2019-03-19T10:00:19.444Z,4.03
2019-03-19T10:03:08.894Z,3.45
2019-03-19T10:05:37.617Z,5.08
2019-03-19T10:08:06.439Z,5.03
2019-03-19T10:10:35.113Z,6.17
2019-03-19T10:13:03.973Z,4.53
2019-03-19T10:15:32.641Z,5.37
2019-03-19T10:18:01.307Z,7.67
2019-03-19T10:20:29.964Z,5.83
2019-03-19T10:22:58.662Z,3.98
2019-03-19T10:25:27.402Z,4.72
2019-03-19T10:27:56.127Z,3.80
2019-03-19T10:30:25.063Z,3.92
2019-03-19T10:32:53.732Z,3.10
2019-03-19T10:35:22.455Z,3.67
2019-03-19T10:37:51.122Z,2.72
2019-03-19T10:40:30.064Z,2.40
2019-03-19T10:42:58.771Z,2.50
2019-03-19T10:45:27.434Z,6.45
2019-03-19T10:47:56.090Z,9.38
2019-03-19T10:50:25.820Z,4.08
2019-03-19T10:52:54.624Z,3.87
2019-03-19T10:55:23.343Z,3.92
2019-03-19T10:57:52.146Z,3.98
2019-03-19T11:00:25.527Z,2.25
2019-03-19T11:02:54.431Z,2.90
2019-03-19T11:05:25.035Z,3.10
2019-03-19T11:07:53.869Z,4.37
2019-03-19T11:10:22.751Z,4.10
2019-03-19T11:12:51.623Z,2.87
2019-03-19T11:15:21.184Z,3.52
2019-03-19T11:17:49.894Z,2.80
2019-03-19T11:20:19.596Z,2.35
2019-03-19T11:22:48.402Z,3.52
2019-03-19T11:25:26.100Z,3.52
2019-03-19T11:27:54.725Z,8.90
2019-03-19T11:30:28.208Z,5.22
2019-03-19T11:32:56.936Z,9.30
2019-03-19T11:35:28.652Z,12.28
2019-03-19T11:37:57.459Z,7.37
2019-03-19T11:40:26.425Z,4.75
2019-03-19T11:42:55.388Z,6.58
2019-03-19T11:45:24.864Z,3.55
2019-03-19T11:47:53.733Z,8.30
2019-03-19T11:50:26.435Z,5.92
2019-03-19T11:52:55.118Z,2.62
2019-03-19T11:55:23.810Z,6.12
2019-03-19T11:57:57.209Z,2.90
2019-03-19T12:00:42.973Z,4.47
2019-03-19T12:03:16.131Z,4.85
2019-03-19T12:05:42.110Z,3.60
2019-03-19T12:08:10.831Z,4.40
2019-03-19T12:10:39.494Z,5.58
2019-03-19T12:13:08.155Z,4.85
2019-03-19T12:15:36.859Z,9.13
2019-03-19T12:18:06.491Z,4.60
2019-03-19T12:20:35.258Z,4.75
2019-03-19T12:23:04.127Z,5.35
2019-03-19T12:25:32.782Z,4.40
2019-03-19T12:28:01.453Z,4.17
2019-03-19T12:30:30.172Z,3.45
2019-03-19T12:32:58.843Z,4.17
2019-03-19T12:35:27.432Z,2.50
2019-03-19T12:37:56.083Z,3.83
2019-03-19T12:40:35.938Z,2.77
2019-03-19T12:42:55.332Z,3.27
2019-03-19T12:45:24.764Z,5.25
2019-03-19T12:47:53.487Z,4.85
2019-03-19T12:50:23.421Z,4.33
2019-03-19T12:52:52.081Z,4.25
2019-03-19T12:55:20.809Z,8.60
2019-03-19T12:57:49.586Z,28.38
2019-03-19T13:00:34.341Z,6.15
2019-03-19T13:02:58.720Z,6.58
2019-03-19T13:05:27.499Z,19.32
2019-03-19T13:07:56.165Z,8.45
2019-03-19T13:10:25.359Z,5.15
2019-03-19T13:12:54.114Z,8.08
2019-03-19T13:15:22.868Z,4.92
2019-03-19T13:17:51.613Z,5.75
2019-03-19T13:20:24.034Z,6.67
2019-03-19T13:22:52.683Z,5.80
2019-03-19T13:25:25.152Z,6.03
2019-03-19T13:27:53.847Z,9.45
2019-03-19T13:30:24.090Z,11.97
2019-03-19T13:32:52.747Z,4.60
2019-03-19T13:35:21.415Z,8.00
2019-03-19T13:37:50.155Z,6.87
2019-03-19T13:40:19.387Z,7.12
2019-03-19T13:42:48.223Z,4.33
2019-03-19T13:45:21.819Z,6.28
2019-03-19T13:47:50.483Z,4.50
2019-03-19T13:50:19.721Z,4.97
2019-03-19T13:52:48.453Z,5.17
2019-03-19T13:55:21.784Z,4.55
2019-03-19T13:57:50.455Z,5.83
2019-03-19T14:00:19.678Z,5.95
2019-03-19T14:02:48.607Z,6.65
2019-03-19T14:05:17.937Z,6.65
2019-03-19T14:07:46.727Z,4.92
2019-03-19T14:10:17.639Z,6.00
2019-03-19T14:15:19.919Z,5.92
2019-03-19T14:17:48.583Z,6.87
2019-03-19T14:20:17.539Z,5.78
2019-03-19T14:22:46.167Z,6.20
2019-03-19T14:25:15.687Z,6.28
2019-03-19T14:27:44.528Z,4.78
2019-03-19T14:30:20.418Z,4.83
2019-03-19T14:32:49.143Z,8.25
2019-03-19T14:35:17.892Z,4.65
2019-03-19T14:37:48.072Z,5.30
2019-03-19T14:40:24.558Z,5.42
2019-03-19T14:42:53.275Z,5.03
2019-03-19T14:45:21.928Z,5.45
2019-03-19T14:47:50.662Z,4.20
2019-03-19T14:50:21.555Z,6.37
2019-03-19T14:55:18.141Z,4.90
2019-03-19T14:57:46.756Z,5.22
2019-03-19T15:00:20.087Z,5.08
2019-03-19T15:02:48.815Z,5.12
2019-03-19T15:05:17.826Z,6.40
2019-03-19T15:07:46.555Z,4.62
2019-03-19T15:10:21.156Z,7.37
2019-03-19T15:12:50.031Z,5.55
2019-03-19T15:15:22.268Z,5.05
2019-03-19T15:17:51.797Z,5.67
2019-03-19T15:20:21.424Z,5.70
2019-03-19T15:22:50.122Z,4.90
2019-03-19T15:25:18.811Z,4.83
2019-03-19T15:27:47.547Z,7.10
2019-03-19T15:30:19.478Z,5.42
2019-03-19T15:32:48.154Z,7.53
2019-03-19T15:35:16.881Z,8.78
2019-03-19T15:37:45.607Z,7.00
2019-03-19T15:40:15.459Z,9.63
2019-03-19T15:42:44.187Z,9.63
2019-03-19T15:45:26.720Z,12.60
2019-03-19T15:47:55.450Z,5.87
2019-03-19T15:50:24.268Z,6.75
2019-03-19T15:52:53.004Z,9.15
2019-03-19T15:55:21.738Z,5.08
2019-03-19T15:57:50.403Z,8.68
2019-03-19T16:00:22.186Z,8.40
2019-03-19T16:02:50.925Z,9.33
2019-03-19T16:05:19.754Z,10.82
2019-03-19T16:07:48.503Z,6.80
2019-03-19T16:10:20.138Z,7.40
2019-03-19T16:12:48.944Z,5.95
2019-03-19T16:15:22.704Z,8.25
2019-03-19T16:17:51.531Z,9.33
2019-03-19T16:20:21.097Z,8.45
2019-03-19T16:22:49.919Z,9.63
2019-03-19T16:25:18.761Z,7.50
2019-03-19T16:27:47.579Z,5.85
2019-03-19T16:30:17.112Z,8.28
2019-03-19T16:32:45.913Z,8.90
2019-03-19T16:35:14.747Z,8.70
2019-03-19T16:37:43.488Z,9.68
2019-03-19T16:40:19.146Z,10.10
2019-03-19T16:42:47.943Z,9.60
2019-03-19T16:45:18.046Z,18.40
2019-03-19T16:47:47.067Z,7.97
2019-03-19T16:50:19.840Z,9.55
2019-03-19T16:52:48.695Z,11.95
2019-03-19T16:55:19.239Z,11.30
2019-03-19T16:57:47.947Z,6.85
2019-03-19T17:00:21.952Z,9.95
2019-03-19T17:02:50.759Z,11.57
2019-03-19T17:05:19.586Z,8.65
2019-03-19T17:07:48.377Z,8.35
2019-03-19T17:10:20.026Z,8.88
2019-03-19T17:12:48.815Z,10.78
2019-03-19T17:15:25.130Z,12.23
2019-03-19T17:17:53.866Z,9.25
2019-03-19T17:20:22.647Z,10.15
2019-03-19T17:22:51.338Z,10.98
2019-03-19T17:25:21.153Z,14.93
2019-03-19T17:27:49.984Z,14.58
2019-03-19T17:30:31.794Z,13.30
2019-03-19T17:33:00.529Z,11.05
2019-03-19T17:35:29.263Z,13.83
2019-03-19T17:37:58.005Z,10.10
2019-03-19T17:40:26.694Z,9.73
2019-03-19T17:42:55.423Z,10.40
2019-03-19T17:45:24.177Z,8.98
2019-03-19T17:47:52.841Z,12.13
2019-03-19T17:50:23.746Z,12.15
2019-03-19T17:55:21.071Z,10.20
2019-03-19T17:57:49.907Z,11.95
2019-03-19T18:00:22.153Z,11.73
2019-03-19T18:02:50.964Z,12.37
2019-03-19T18:05:19.714Z,11.25
2019-03-19T18:07:48.451Z,10.68
2019-03-19T18:10:17.186Z,11.73
2019-03-19T18:12:45.894Z,13.58
2019-03-19T18:15:19.283Z,13.78
2019-03-19T18:17:47.952Z,13.25
2019-03-19T18:20:17.487Z,14.43
2019-03-19T18:22:51.855Z,12.45
2019-03-19T18:25:20.923Z,9.73
2019-03-19T18:27:49.723Z,8.83
2019-03-19T18:30:25.091Z,11.05
2019-03-19T18:32:53.826Z,8.88
2019-03-19T18:35:22.567Z,11.48
2019-03-19T18:37:51.314Z,11.80
2019-03-19T18:40:21.511Z,9.70
2019-03-19T18:42:50.185Z,8.75
2019-03-19T18:45:19.823Z,18.25
2019-03-19T18:47:48.674Z,9.00
2019-03-19T18:50:21.434Z,10.72
2019-03-19T18:52:50.165Z,9.28
2019-03-19T18:55:18.829Z,14.70
2019-03-19T18:57:47.571Z,10.75
2019-03-19T19:00:18.343Z,8.25
2019-03-19T19:02:50.323Z,7.78
2019-03-19T19:05:18.690Z,10.32
2019-03-19T19:07:47.369Z,11.00
2019-03-19T19:10:21.099Z,7.35
2019-03-19T19:12:49.620Z,9.13
2019-03-19T19:15:21.983Z,9.15
2019-03-19T19:17:50.643Z,7.87
2019-03-19T19:20:19.570Z,7.35
2019-03-19T19:22:48.407Z,7.85
2019-03-19T19:25:19.203Z,7.15
2019-03-19T19:27:47.939Z,7.85
2019-03-19T19:30:19.414Z,6.70
2019-03-19T19:32:48.095Z,7.80
2019-03-19T19:35:16.740Z,6.12
2019-03-19T19:37:45.406Z,6.78
2019-03-19T19:40:16.075Z,7.80
2019-03-19T19:42:44.855Z,8.30
2019-03-19T19:45:18.350Z,7.47
2019-03-19T19:47:47.221Z,7.17
2019-03-19T19:50:17.871Z,10.90
2019-03-19T19:52:46.619Z,10.75
2019-03-19T19:55:15.637Z,9.50
2019-03-19T19:57:44.779Z,10.08
2019-03-19T20:00:21.394Z,9.80
2019-03-19T20:02:50.303Z,7.50
2019-03-19T20:05:19.044Z,8.15
2019-03-19T20:07:47.995Z,8.70
2019-03-19T20:10:19.099Z,9.48
2019-03-19T20:12:47.762Z,10.10
2019-03-19T20:15:16.606Z,9.10
2019-03-19T20:17:45.411Z,11.03
2019-03-19T20:20:19.004Z,9.75
2019-03-19T20:22:47.675Z,8.93
2019-03-19T20:25:16.330Z,7.90
2019-03-19T20:27:45.067Z,7.28
2019-03-19T20:30:21.929Z,7.75
2019-03-19T20:32:52.576Z,6.47
2019-03-19T20:35:23.006Z,7.20
2019-03-19T20:37:53.314Z,7.45
2019-03-19T20:40:22.161Z,7.92
2019-03-19T20:42:50.896Z,7.37
2019-03-19T20:45:22.091Z,7.58
2019-03-19T20:47:50.762Z,7.78
2019-03-19T20:50:22.169Z,7.83
2019-03-19T20:52:50.827Z,8.05
2019-03-19T20:55:19.498Z,8.38
2019-03-19T20:57:48.154Z,7.58
2019-03-19T21:00:17.987Z,6.95
2019-03-19T21:02:46.715Z,6.33
2019-03-19T21:05:15.585Z,6.10
2019-03-19T21:07:44.333Z,5.87
2019-03-19T21:10:15.843Z,5.37
2019-03-19T21:12:44.574Z,5.75
2019-03-19T21:15:26.506Z,5.78
2019-03-19T21:17:55.231Z,6.40
2019-03-19T21:20:23.909Z,6.00
2019-03-19T21:22:52.569Z,6.50
2019-03-19T21:25:21.321Z,7.28
2019-03-19T21:27:50.255Z,6.28
2019-03-19T21:30:21.123Z,10.78
2019-03-19T21:32:49.837Z,7.42
2019-03-19T21:35:23.120Z,8.85
2019-03-19T21:37:52.139Z,9.25
2019-03-19T21:40:20.890Z,13.25
2019-03-19T21:42:50.035Z,6.92
2019-03-19T21:45:19.661Z,7.72
2019-03-19T21:47:48.411Z,8.13
2019-03-19T21:50:19.400Z,8.28
2019-03-19T21:55:16.293Z,7.50
2019-03-19T21:57:45.020Z,7.25
2019-03-19T22:00:21.775Z,8.43
2019-03-19T22:02:50.517Z,7.05
2019-03-19T22:05:19.247Z,7.25
2019-03-19T22:07:47.907Z,6.58
2019-03-19T22:10:18.815Z,7.37
2019-03-19T22:12:49.359Z,6.62
2019-03-19T22:15:26.087Z,7.72
2019-03-19T22:17:54.748Z,6.80
2019-03-19T22:20:23.486Z,6.87
2019-03-19T22:22:52.215Z,6.72
2019-03-19T22:25:20.884Z,7.60
2019-03-19T22:27:49.638Z,5.55
2019-03-19T22:30:19.369Z,5.85
2019-03-19T22:32:48.067Z,7.05
2019-03-19T22:35:16.803Z,6.53
2019-03-19T22:37:45.572Z,5.72
2019-03-19T22:40:15.418Z,6.90
2019-03-19T22:42:44.203Z,5.42
2019-03-19T22:45:17.805Z,5.45
2019-03-19T22:47:46.551Z,5.05
2019-03-19T22:50:16.207Z,5.37
2019-03-19T22:52:45.000Z,5.35
2019-03-19T22:55:14.421Z,5.70
2019-03-19T22:57:43.570Z,6.92
2019-03-19T23:00:37.224Z,6.07
2019-03-19T23:03:07.193Z,5.72
2019-03-19T23:05:36.283Z,5.85
2019-03-19T23:08:05.295Z,5.75
2019-03-19T23:10:34.417Z,5.40
2019-03-19T23:13:03.332Z,5.45
2019-03-19T23:15:32.074Z,5.97
2019-03-19T23:18:00.739Z,6.12
2019-03-19T23:20:29.637Z,6.53
2019-03-19T23:22:58.442Z,5.55
2019-03-19T23:25:27.104Z,7.37
2019-03-19T23:27:55.839Z,6.03
2019-03-19T23:30:25.268Z,5.62
2019-03-19T23:32:54.035Z,5.37
2019-03-19T23:35:22.733Z,6.95
2019-03-19T23:37:51.432Z,7.25
2019-03-19T23:40:20.860Z,5.35
2019-03-19T23:42:49.588Z,6.47
2019-03-19T23:45:18.356Z,5.12
2019-03-19T23:47:47.115Z,5.70
2019-03-19T23:50:19.910Z,6.97
2019-03-19T23:52:48.567Z,5.65
2019-03-19T23:55:17.227Z,6.95
2019-03-19T23:57:45.878Z,7.58
